logo
Search for airport 
image banner adimage banner adimage banner ad
image banner ad

MMLMT - Rancho La Margarita

Located in Ciudad Acuña, Mexico

ICAO - , IATA -

Data provided by Airmate  

General information

Coordinates: N29°13'27" W101°14'37"
Elevation is 1394 feet MSL.
Magnetic variation is 4° East
View others Airports in Coahuila

Operational data

Special qualification required
Current time UTC:
Current local time:
Weather at : KDRT - Del Rio Intl ( 35 km )
METAR: KDRT 220653Z AUTO 12015G26KT 7SM BKN023 31/24 A2975 RMK AO2 PK WND 13026/0645 SLP060 T03060244
TAF: KDRT 220521Z 2206/2306 11009KT P6SM BKN250 FM221200 12009KT P6SM BKN025 FM221600 13009KT P6SM SCT250
View NOTAMs / SUP AIP / TFR affecting this airport [VIEW]
Communications frequencies: [VIEW]

Runways:

RWY identifierQFULength (ft)Width (ft)SurfaceLDA (ft)
29297°431051ASPH
11117°431051ASPH

Airport contact information

Address: Ciudad Acuña Mexico

Satellite view of MMLMT